Terminal Aerodrome Forecast
Issued by NWS Sterling, VA

Home | Current Version | Previous Version | Text Only | Print | Product List | Glossary On
Versions: 1 2 3 4 5 6 7 8 9 10 11 12 13 14 15 16 17 18 19 20 21 22 23
368
FTUS41 KLWX 181459 AAA
TAFBWI
TAF AMD
KBWI 181459Z 1815/1918 25004KT P6SM BKN050
     FM190900 25004KT P6SM SCT040
     FM191500 23007KT P6SM FEW250=

USA.gov is the U.S. government's official web portal to all federal, state and local government web resources and services.